sensor_id;sensor_type;location;lat;lon;timestamp;pressure;altitude;pressure_sealevel;temperature;humidity
740;BME280;354;42.694;23.336;2022-12-10T13:01:28;94172.25;;;15.40;100.00
740;BME280;354;42.694;23.336;2022-12-10T13:03:56;94191.03;;;15.59;100.00
740;BME280;354;42.694;23.336;2022-12-10T13:06:28;94187.88;;;15.41;100.00
740;BME280;354;42.694;23.336;2022-12-10T13:12:30;94178.56;;;15.49;100.00
740;BME280;354;42.694;23.336;2022-12-10T13:14:33;94174.91;;;15.24;100.00
740;BME280;354;42.694;23.336;2022-12-10T13:19:53;94183.34;;;14.81;100.00
740;BME280;354;42.694;23.336;2022-12-10T13:25:15;94180.75;;;15.16;100.00
740;BME280;354;42.694;23.336;2022-12-10T13:27:42;94175.41;;;15.26;100.00
740;BME280;354;42.694;23.336;2022-12-10T13:30:32;94162.16;;;15.32;100.00
740;BME280;354;42.694;23.336;2022-12-10T13:33:14;94164.03;;;15.26;100.00
740;BME280;354;42.694;23.336;2022-12-10T13:35:59;94143.13;;;15.19;100.00
740;BME280;354;42.694;23.336;2022-12-10T13:38:26;94131.22;;;15.22;100.00
740;BME280;354;42.694;23.336;2022-12-10T13:41:02;94140.47;;;15.29;100.00
740;BME280;354;42.694;23.336;2022-12-10T13:44:00;94127.50;;;15.23;100.00
740;BME280;354;42.694;23.336;2022-12-10T13:46:54;94112.41;;;15.23;100.00
740;BME280;354;42.694;23.336;2022-12-10T13:49:22;94114.25;;;15.13;100.00
740;BME280;354;42.694;23.336;2022-12-10T13:51:57;94117.19;;;15.16;100.00
740;BME280;354;42.694;23.336;2022-12-10T14:00:31;94132.28;;;15.06;100.00
740;BME280;354;42.694;23.336;2022-12-10T14:08:33;94127.22;;;14.94;100.00
740;BME280;354;42.694;23.336;2022-12-10T14:11:00;94121.91;;;14.89;100.00
740;BME280;354;42.694;23.336;2022-12-10T14:13:40;94121.91;;;14.89;100.00
740;BME280;354;42.694;23.336;2022-12-10T14:16:14;94120.31;;;14.77;100.00
740;BME280;354;42.694;23.336;2022-12-10T14:18:46;94106.03;;;14.63;100.00
740;BME280;354;42.694;23.336;2022-12-10T14:21:16;94118.75;;;14.76;100.00
740;BME280;354;42.694;23.336;2022-12-10T14:23:45;94114.00;;;14.73;100.00
740;BME280;354;42.694;23.336;2022-12-10T14:26:20;94106.56;;;14.70;100.00
740;BME280;354;42.694;23.336;2022-12-10T14:28:53;94102.63;;;14.68;100.00
740;BME280;354;42.694;23.336;2022-12-10T14:31:22;94104.19;;;14.64;100.00
740;BME280;354;42.694;23.336;2022-12-10T14:33:50;94098.91;;;14.64;100.00
740;BME280;354;42.694;23.336;2022-12-10T14:36:48;94097.03;;;14.59;100.00
740;BME280;354;42.694;23.336;2022-12-10T14:39:20;94097.03;;;14.64;100.00
740;BME280;354;42.694;23.336;2022-12-10T14:41:47;94089.09;;;14.59;100.00
740;BME280;354;42.694;23.336;2022-12-10T14:44:15;94078.25;;;14.61;100.00
740;BME280;354;42.694;23.336;2022-12-10T14:46:42;94085.66;;;14.59;100.00
740;BME280;354;42.694;23.336;2022-12-10T14:49:16;94057.06;;;14.45;100.00
740;BME280;354;42.694;23.336;2022-12-10T14:51:42;94089.34;;;14.47;100.00
740;BME280;354;42.694;23.336;2022-12-10T14:54:29;94082.16;;;14.43;100.00
740;BME280;354;42.694;23.336;2022-12-10T14:56:59;94068.41;;;14.31;100.00
740;BME280;354;42.694;23.336;2022-12-10T14:59:32;94081.34;;;14.27;100.00
740;BME280;354;42.694;23.336;2022-12-10T15:02:01;94079.47;;;14.22;100.00
740;BME280;354;42.694;23.336;2022-12-10T15:04:41;94075.00;;;14.33;100.00
740;BME280;354;42.694;23.336;2022-12-10T15:07:19;94075.53;;;14.25;100.00
740;BME280;354;42.694;23.336;2022-12-10T15:09:46;94089.25;;;14.17;100.00
740;BME280;354;42.694;23.336;2022-12-10T15:15:02;94082.88;;;14.03;100.00
740;BME280;354;42.694;23.336;2022-12-10T15:17:40;94095.00;;;13.93;100.00
740;BME280;354;42.694;23.336;2022-12-10T15:20:18;94078.63;;;13.91;100.00
740;BME280;354;42.694;23.336;2022-12-10T15:22:44;94077.81;;;13.86;100.00
740;BME280;354;42.694;23.336;2022-12-10T15:25:50;94084.16;;;13.90;100.00
740;BME280;354;42.694;23.336;2022-12-10T15:28:22;94077.25;;;13.84;100.00
740;BME280;354;42.694;23.336;2022-12-10T15:30:47;94082.31;;;13.90;100.00
740;BME280;354;42.694;23.336;2022-12-10T15:33:40;94064.06;;;13.94;100.00
740;BME280;354;42.694;23.336;2022-12-10T15:36:20;94067.50;;;13.89;100.00
740;BME280;354;42.694;23.336;2022-12-10T15:38:47;94055.59;;;13.82;100.00
740;BME280;354;42.694;23.336;2022-12-10T15:41:40;94052.63;;;13.73;100.00
740;BME280;354;42.694;23.336;2022-12-10T15:44:19;94057.13;;;13.73;100.00
740;BME280;354;42.694;23.336;2022-12-10T15:46:50;94048.94;;;13.69;100.00
740;BME280;354;42.694;23.336;2022-12-10T15:49:16;94052.06;;;13.61;100.00
740;BME280;354;42.694;23.336;2022-12-10T15:51:42;94052.84;;;13.56;100.00
740;BME280;354;42.694;23.336;2022-12-10T15:56:47;94065.53;;;13.59;100.00
740;BME280;354;42.694;23.336;2022-12-10T15:59:12;94066.03;;;13.51;100.00
740;BME280;354;42.694;23.336;2022-12-10T16:01:37;94047.00;;;13.49;100.00
740;BME280;354;42.694;23.336;2022-12-10T16:04:03;94060.56;;;13.68;100.00
740;BME280;354;42.694;23.336;2022-12-10T16:06:28;94041.03;;;13.69;100.00
740;BME280;354;42.694;23.336;2022-12-10T16:08:54;94038.09;;;13.70;100.00
740;BME280;354;42.694;23.336;2022-12-10T16:11:19;94044.16;;;13.61;100.00
740;BME280;354;42.694;23.336;2022-12-10T16:13:52;94039.88;;;13.50;100.00
740;BME280;354;42.694;23.336;2022-12-10T16:16:18;94035.69;;;13.59;100.00
740;BME280;354;42.694;23.336;2022-12-10T16:18:43;94020.13;;;13.67;100.00
740;BME280;354;42.694;23.336;2022-12-10T16:21:09;94020.94;;;13.68;100.00
740;BME280;354;42.694;23.336;2022-12-10T16:23:34;94015.63;;;13.58;100.00
740;BME280;354;42.694;23.336;2022-12-10T16:26:01;94000.78;;;13.47;100.00
740;BME280;354;42.694;23.336;2022-12-10T16:28:27;94011.59;;;13.45;100.00
740;BME280;354;42.694;23.336;2022-12-10T16:30:54;94017.88;;;13.34;100.00
740;BME280;354;42.694;23.336;2022-12-10T16:33:22;94020.19;;;13.20;100.00
740;BME280;354;42.694;23.336;2022-12-10T16:35:49;94034.44;;;13.19;100.00
740;BME280;354;42.694;23.336;2022-12-10T16:38:16;94035.72;;;13.16;100.00
740;BME280;354;42.694;23.336;2022-12-10T16:40:43;94029.16;;;13.19;100.00
740;BME280;354;42.694;23.336;2022-12-10T16:43:14;94034.66;;;13.17;100.00
740;BME280;354;42.694;23.336;2022-12-10T16:45:40;94034.72;;;13.23;100.00
740;BME280;354;42.694;23.336;2022-12-10T16:48:05;94025.72;;;13.18;100.00
740;BME280;354;42.694;23.336;2022-12-10T16:50:32;94031.00;;;13.18;100.00
740;BME280;354;42.694;23.336;2022-12-10T16:53:02;94023.00;;;13.03;100.00
740;BME280;354;42.694;23.336;2022-12-10T16:55:28;94034.00;;;12.95;100.00
740;BME280;354;42.694;23.336;2022-12-10T16:57:54;94037.13;;;12.87;100.00
740;BME280;354;42.694;23.336;2022-12-10T17:00:22;94004.88;;;12.75;100.00
740;BME280;354;42.694;23.336;2022-12-10T17:02:48;94013.28;;;12.72;100.00
740;BME280;354;42.694;23.336;2022-12-10T17:05:35;94021.81;;;12.84;100.00
740;BME280;354;42.694;23.336;2022-12-10T17:07:59;94015.56;;;13.00;100.00
740;BME280;354;42.694;23.336;2022-12-10T17:10:25;93990.75;;;13.01;100.00
740;BME280;354;42.694;23.336;2022-12-10T17:13:10;94010.97;;;12.85;100.00
740;BME280;354;42.694;23.336;2022-12-10T17:15:37;94000.91;;;12.77;100.00
740;BME280;354;42.694;23.336;2022-12-10T17:18:02;94012.75;;;12.70;100.00
740;BME280;354;42.694;23.336;2022-12-10T17:20:28;94006.91;;;12.68;100.00
740;BME280;354;42.694;23.336;2022-12-10T17:22:54;93999.59;;;12.75;100.00
740;BME280;354;42.694;23.336;2022-12-10T17:25:20;93988.78;;;12.76;100.00
740;BME280;354;42.694;23.336;2022-12-10T17:27:45;93983.97;;;12.68;100.00
740;BME280;354;42.694;23.336;2022-12-10T17:30:14;93972.28;;;12.54;100.00
740;BME280;354;42.694;23.336;2022-12-10T17:32:41;93956.09;;;12.40;100.00
740;BME280;354;42.694;23.336;2022-12-10T17:35:06;93964.59;;;12.47;100.00
740;BME280;354;42.694;23.336;2022-12-10T17:37:36;93973.75;;;12.39;100.00
740;BME280;354;42.694;23.336;2022-12-10T17:40:06;93965.31;;;12.37;100.00
740;BME280;354;42.694;23.336;2022-12-10T17:42:35;93951.75;;;12.24;100.00
740;BME280;354;42.694;23.336;2022-12-10T17:45:01;93952.09;;;12.32;100.00
740;BME280;354;42.694;23.336;2022-12-10T17:47:26;93935.06;;;12.13;100.00
740;BME280;354;42.694;23.336;2022-12-10T17:49:53;93949.38;;;12.22;100.00
740;BME280;354;42.694;23.336;2022-12-10T17:52:18;93963.88;;;12.25;100.00
740;BME280;354;42.694;23.336;2022-12-10T17:54:44;93950.47;;;12.26;100.00
740;BME280;354;42.694;23.336;2022-12-10T17:57:20;93951.25;;;12.27;100.00
740;BME280;354;42.694;23.336;2022-12-10T17:59:46;93951.75;;;12.24;100.00
740;BME280;354;42.694;23.336;2022-12-10T18:02:12;93953.97;;;12.37;100.00
740;BME280;354;42.694;23.336;2022-12-10T18:04:38;93947.44;;;12.45;100.00
740;BME280;354;42.694;23.336;2022-12-10T18:07:10;93950.34;;;12.48;100.00
740;BME280;354;42.694;23.336;2022-12-10T18:09:37;93946.09;;;12.42;100.00
740;BME280;354;42.694;23.336;2022-12-10T18:12:03;93946.91;;;12.43;100.00
740;BME280;354;42.694;23.336;2022-12-10T18:14:28;93944.75;;;12.39;100.00
740;BME280;354;42.694;23.336;2022-12-10T18:16:53;93935.59;;;12.47;100.00
740;BME280;354;42.694;23.336;2022-12-10T18:19:19;93922.38;;;12.42;100.00
740;BME280;354;42.694;23.336;2022-12-10T18:21:44;93913.63;;;12.36;100.00
740;BME280;354;42.694;23.336;2022-12-10T18:24:10;93919.19;;;12.40;100.00
740;BME280;354;42.694;23.336;2022-12-10T18:26:35;93929.25;;;12.48;100.00
740;BME280;354;42.694;23.336;2022-12-10T18:29:02;93906.28;;;12.44;100.00
740;BME280;354;42.694;23.336;2022-12-10T18:31:34;93905.81;;;12.57;100.00
740;BME280;354;42.694;23.336;2022-12-10T18:34:05;93906.59;;;12.52;100.00
740;BME280;354;42.694;23.336;2022-12-10T18:36:33;93914.03;;;12.60;100.00
740;BME280;354;42.694;23.336;2022-12-10T18:39:02;93911.63;;;12.54;100.00
740;BME280;354;42.694;23.336;2022-12-10T18:41:28;93902.16;;;12.63;100.00
740;BME280;354;42.694;23.336;2022-12-10T18:43:55;93899.78;;;12.61;100.00
740;BME280;354;42.694;23.336;2022-12-10T18:46:23;93895.59;;;12.65;100.00
740;BME280;354;42.694;23.336;2022-12-10T18:48:49;93877.63;;;12.62;100.00
740;BME280;354;42.694;23.336;2022-12-10T18:51:15;93880.06;;;12.69;100.00
740;BME280;354;42.694;23.336;2022-12-10T18:53:42;93881.28;;;12.56;100.00
740;BME280;354;42.694;23.336;2022-12-10T18:56:17;93872.28;;;12.42;100.00
740;BME280;354;42.694;23.336;2022-12-10T18:58:44;93878.91;;;12.50;100.00
740;BME280;354;42.694;23.336;2022-12-10T19:01:16;93831.56;;;12.28;100.00
740;BME280;354;42.694;23.336;2022-12-10T19:03:41;93874.44;;;12.55;100.00
740;BME280;354;42.694;23.336;2022-12-10T19:06:15;93865.72;;;12.50;100.00
740;BME280;354;42.694;23.336;2022-12-10T19:11:13;93859.41;;;12.56;100.00
740;BME280;354;42.694;23.336;2022-12-10T19:13:41;93858.13;;;12.58;100.00
740;BME280;354;42.694;23.336;2022-12-10T19:16:17;93853.38;;;12.60;100.00
740;BME280;354;42.694;23.336;2022-12-10T19:18:43;93823.78;;;12.48;100.00
740;BME280;354;42.694;23.336;2022-12-10T19:21:11;93798.94;;;12.39;100.00
740;BME280;354;42.694;23.336;2022-12-10T19:23:37;93828.78;;;12.50;100.00
740;BME280;354;42.694;23.336;2022-12-10T19:26:05;93834.88;;;12.55;100.00
740;BME280;354;42.694;23.336;2022-12-10T19:28:31;93838.34;;;12.61;100.00
740;BME280;354;42.694;23.336;2022-12-10T19:30:56;93843.13;;;12.69;100.00
740;BME280;354;42.694;23.336;2022-12-10T19:33:21;93846.84;;;12.78;100.00
740;BME280;354;42.694;23.336;2022-12-10T19:35:47;93828.88;;;12.65;100.00
740;BME280;354;42.694;23.336;2022-12-10T19:38:13;93816.19;;;12.62;100.00
740;BME280;354;42.694;23.336;2022-12-10T19:40:40;93815.38;;;12.61;100.00
740;BME280;354;42.694;23.336;2022-12-10T19:43:05;93816.94;;;12.47;100.00
740;BME280;354;42.694;23.336;2022-12-10T19:45:32;93820.31;;;12.43;100.00
740;BME280;354;42.694;23.336;2022-12-10T19:47:58;93818.53;;;12.53;100.00
740;BME280;354;42.694;23.336;2022-12-10T19:50:26;93813.75;;;12.50;100.00
740;BME280;354;42.694;23.336;2022-12-10T19:52:52;93790.31;;;12.54;100.00
740;BME280;354;42.694;23.336;2022-12-10T19:55:19;93790.06;;;12.60;100.00
740;BME280;354;42.694;23.336;2022-12-10T19:57:45;93779.50;;;12.55;100.00
740;BME280;354;42.694;23.336;2022-12-10T20:00:24;93751.25;;;12.46;100.00
740;BME280;354;42.694;23.336;2022-12-10T20:02:50;93762.88;;;12.55;100.00
740;BME280;354;42.694;23.336;2022-12-10T20:05:16;93762.34;;;12.48;100.00
740;BME280;354;42.694;23.336;2022-12-10T20:07:42;93764.75;;;12.59;100.00
740;BME280;354;42.694;23.336;2022-12-10T20:10:17;93736.69;;;12.28;100.00
740;BME280;354;42.694;23.336;2022-12-10T20:12:43;93751.00;;;12.47;100.00
740;BME280;354;42.694;23.336;2022-12-10T20:15:09;93755.22;;;12.48;100.00
740;BME280;354;42.694;23.336;2022-12-10T20:17:35;93735.13;;;12.37;100.00
740;BME280;354;42.694;23.336;2022-12-10T20:20:00;93733.53;;;12.36;100.00
740;BME280;354;42.694;23.336;2022-12-10T20:22:25;93721.41;;;12.35;100.00
740;BME280;354;42.694;23.336;2022-12-10T20:24:51;93699.22;;;12.16;100.00
740;BME280;354;42.694;23.336;2022-12-10T20:27:16;93725.59;;;12.26;100.00
740;BME280;354;42.694;23.336;2022-12-10T20:29:42;93685.22;;;12.10;100.00
740;BME280;354;42.694;23.336;2022-12-10T20:32:08;93719.53;;;12.25;100.00
740;BME280;354;42.694;23.336;2022-12-10T20:34:34;93709.00;;;12.30;100.00
740;BME280;354;42.694;23.336;2022-12-10T20:36:59;93717.19;;;12.34;100.00
740;BME280;354;42.694;23.336;2022-12-10T20:39:28;93693.75;;;12.43;100.00
740;BME280;354;42.694;23.336;2022-12-10T20:41:54;93674.44;;;12.22;100.00
740;BME280;354;42.694;23.336;2022-12-10T20:44:21;93700.28;;;12.25;100.00
740;BME280;354;42.694;23.336;2022-12-10T20:46:47;93666.31;;;12.38;100.00
740;BME280;354;42.694;23.336;2022-12-10T20:49:15;93677.38;;;12.35;100.00
740;BME280;354;42.694;23.336;2022-12-10T20:51:41;93646.53;;;12.31;100.00
740;BME280;354;42.694;23.336;2022-12-10T20:54:07;93661.56;;;12.25;100.00
740;BME280;354;42.694;23.336;2022-12-10T20:56:33;93626.78;;;12.38;100.00
740;BME280;354;42.694;23.336;2022-12-10T20:58:58;93609.63;;;12.36;100.00
740;BME280;354;42.694;23.336;2022-12-10T21:01:24;93624.41;;;12.37;100.00
740;BME280;354;42.694;23.336;2022-12-10T21:03:49;93617.31;;;12.43;100.00
740;BME280;354;42.694;23.336;2022-12-10T21:06:17;93628.38;;;12.50;100.00
740;BME280;354;42.694;23.336;2022-12-10T21:08:44;93605.72;;;12.54;100.00
740;BME280;354;42.694;23.336;2022-12-10T21:11:10;93608.34;;;12.59;100.00
740;BME280;354;42.694;23.336;2022-12-10T21:13:36;93621.25;;;12.50;100.00
740;BME280;354;42.694;23.336;2022-12-10T21:16:02;93616.50;;;12.42;100.00
740;BME280;354;42.694;23.336;2022-12-10T21:18:28;93580.63;;;12.46;100.00
740;BME280;354;42.694;23.336;2022-12-10T21:20:54;93606.19;;;12.35;100.00
740;BME280;354;42.694;23.336;2022-12-10T21:23:22;93579.59;;;12.37;100.00
740;BME280;354;42.694;23.336;2022-12-10T21:25:49;93580.38;;;12.37;100.00
740;BME280;354;42.694;23.336;2022-12-10T21:28:15;93591.72;;;12.33;100.00
740;BME280;354;42.694;23.336;2022-12-10T21:30:40;93580.91;;;12.39;100.00
740;BME280;354;42.694;23.336;2022-12-10T21:33:09;93564.53;;;12.27;100.00
740;BME280;354;42.694;23.336;2022-12-10T21:35:34;93560.56;;;12.25;100.00
740;BME280;354;42.694;23.336;2022-12-10T21:38:01;93536.03;;;12.14;100.00
740;BME280;354;42.694;23.336;2022-12-10T21:40:28;93551.34;;;12.17;100.00
740;BME280;354;42.694;23.336;2022-12-10T21:42:53;93538.69;;;12.24;100.00
740;BME280;354;42.694;23.336;2022-12-10T21:45:37;93537.91;;;12.19;100.00
740;BME280;354;42.694;23.336;2022-12-10T21:48:03;93524.47;;;12.10;100.00
740;BME280;354;42.694;23.336;2022-12-10T21:50:29;93526.06;;;12.21;100.00
740;BME280;354;42.694;23.336;2022-12-10T21:52:54;93550.56;;;12.27;100.00
740;BME280;354;42.694;23.336;2022-12-10T21:55:21;93493.63;;;12.41;100.00
740;BME280;354;42.694;23.336;2022-12-10T21:57:47;93532.13;;;12.32;100.00
740;BME280;354;42.694;23.336;2022-12-10T22:00:14;93501.56;;;12.31;100.00
740;BME280;354;42.694;23.336;2022-12-10T22:02:40;93530.00;;;12.29;100.00
740;BME280;354;42.694;23.336;2022-12-10T22:05:06;93510.25;;;12.26;100.00
740;BME280;354;42.694;23.336;2022-12-10T22:07:34;93520.53;;;12.28;100.00
740;BME280;354;42.694;23.336;2022-12-10T22:10:00;93498.09;;;12.30;100.00
740;BME280;354;42.694;23.336;2022-12-10T22:12:25;93484.69;;;12.27;100.00
740;BME280;354;42.694;23.336;2022-12-10T22:14:51;93456.19;;;12.13;100.00
740;BME280;354;42.694;23.336;2022-12-10T22:17:16;93433.53;;;12.12;100.00
740;BME280;354;42.694;23.336;2022-12-10T22:19:41;93454.63;;;12.12;100.00
740;BME280;354;42.694;23.336;2022-12-10T22:22:07;93467.03;;;12.22;100.00
740;BME280;354;42.694;23.336;2022-12-10T22:24:32;93445.16;;;12.27;100.00
740;BME280;354;42.694;23.336;2022-12-10T22:26:58;93446.44;;;12.24;100.00
740;BME280;354;42.694;23.336;2022-12-10T22:29:23;93478.63;;;12.26;100.00
740;BME280;354;42.694;23.336;2022-12-10T22:31:51;93465.69;;;12.40;100.00
740;BME280;354;42.694;23.336;2022-12-10T22:34:16;93449.91;;;12.20;100.00
740;BME280;354;42.694;23.336;2022-12-10T22:36:42;93474.13;;;12.27;100.00
740;BME280;354;42.694;23.336;2022-12-10T22:39:07;93441.44;;;12.18;100.00
740;BME280;354;42.694;23.336;2022-12-10T22:41:34;93445.41;;;12.20;100.00
740;BME280;354;42.694;23.336;2022-12-10T22:44:00;93431.41;;;12.25;100.00
740;BME280;354;42.694;23.336;2022-12-10T22:46:25;93411.09;;;12.40;100.00
740;BME280;354;42.694;23.336;2022-12-10T22:48:50;93346.81;;;12.31;100.00
740;BME280;354;42.694;23.336;2022-12-10T22:51:16;93411.94;;;12.26;100.00
740;BME280;354;42.694;23.336;2022-12-10T22:53:41;93342.34;;;12.32;100.00
740;BME280;354;42.694;23.336;2022-12-10T22:56:07;93364.22;;;12.22;100.00
740;BME280;354;42.694;23.336;2022-12-10T22:58:33;93396.13;;;12.26;100.00
740;BME280;354;42.694;23.336;2022-12-10T23:00:59;93350.53;;;12.15;100.00
740;BME280;354;42.694;23.336;2022-12-10T23:03:25;93378.19;;;12.18;100.00
740;BME280;354;42.694;23.336;2022-12-10T23:05:51;93300.19;;;12.22;100.00
740;BME280;354;42.694;23.336;2022-12-10T23:08:17;93326.03;;;12.15;100.00
740;BME280;354;42.694;23.336;2022-12-10T23:10:43;93340.25;;;12.13;100.00
740;BME280;354;42.694;23.336;2022-12-10T23:13:10;93350.78;;;12.13;100.00
740;BME280;354;42.694;23.336;2022-12-10T23:15:40;93283.09;;;12.09;100.00
740;BME280;354;42.694;23.336;2022-12-10T23:18:06;93329.47;;;12.15;100.00
740;BME280;354;42.694;23.336;2022-12-10T23:20:32;93345.53;;;12.08;100.00
740;BME280;354;42.694;23.336;2022-12-10T23:22:58;93327.06;;;12.13;100.00
740;BME280;354;42.694;23.336;2022-12-10T23:25:24;93312.34;;;12.02;100.00
740;BME280;354;42.694;23.336;2022-12-10T23:27:49;93322.34;;;12.10;100.00
740;BME280;354;42.694;23.336;2022-12-10T23:30:15;93296.53;;;12.07;100.00
740;BME280;354;42.694;23.336;2022-12-10T23:32:41;93264.91;;;12.02;100.00
740;BME280;354;42.694;23.336;2022-12-10T23:35:07;93250.44;;;12.05;100.00
740;BME280;354;42.694;23.336;2022-12-10T23:37:33;93310.75;;;12.01;100.00
740;BME280;354;42.694;23.336;2022-12-10T23:39:58;93272.03;;;12.02;100.00
740;BME280;354;42.694;23.336;2022-12-10T23:42:28;93265.75;;;11.98;100.00
740;BME280;354;42.694;23.336;2022-12-10T23:44:55;93261.25;;;11.78;100.00
740;BME280;354;42.694;23.336;2022-12-10T23:47:20;93259.16;;;11.95;100.00
740;BME280;354;42.694;23.336;2022-12-10T23:49:46;93250.19;;;11.96;100.00
740;BME280;354;42.694;23.336;2022-12-10T23:52:11;93274.16;;;12.00;100.00
740;BME280;354;42.694;23.336;2022-12-10T23:54:36;93285.47;;;12.00;100.00
740;BME280;354;42.694;23.336;2022-12-10T23:57:03;93240.16;;;12.03;100.00
740;BME280;354;42.694;23.336;2022-12-10T23:59:28;93260.19;;;12.04;100.00
